Terminal Aerodrome Forecast
Issued by NWS

Home | Current Version | Previous Version | Text Only | Print | Product List | Glossary On
Versions: 1 2 3 4 5 6 7 8 9 10 11 12 13
000
FTAK31 PAJN 011700
TAFAPG
TAF
PAPG 011721Z 0118/0218 VRB02KT P6SM SCT070
     FM012100 05007KT P6SM SCT040 BKN070
     FM020300 08005KT P6SM VCSH SCT025 OVC050
     FM020600 13005KT P6SM -RA VCSH SCT025 OVC050
     FM020900 15008G13KT 4SM -RA BR BKN015 OVC025
      AMD LTD TO CLD VIS AND WIND 0206/0215=

USA.gov is the U.S. government's official web portal to all federal, state and local government web resources and services.